createdAt,value
2022-12-25T00:01:51.646Z,28.80
2022-12-25T00:04:25.432Z,32.90
2022-12-25T00:06:59.914Z,29.10
2022-12-25T00:09:34.049Z,26.60
2022-12-25T00:12:08.795Z,29.30
2022-12-25T00:14:42.318Z,28.30
2022-12-25T00:17:16.379Z,25.30
2022-12-25T00:19:50.383Z,27.00
2022-12-25T00:22:24.075Z,28.60
2022-12-25T00:24:57.907Z,24.90
2022-12-25T00:27:32.795Z,24.60
2022-12-25T00:30:08.220Z,26.80
2022-12-25T00:32:42.465Z,25.30
2022-12-25T00:35:15.930Z,26.80
2022-12-25T00:37:49.433Z,26.00
2022-12-25T00:40:23.036Z,26.00
2022-12-25T00:42:56.653Z,26.10
2022-12-25T00:45:30.197Z,26.60
2022-12-25T00:48:03.881Z,31.70
2022-12-25T00:50:39.376Z,31.50
2022-12-25T00:53:13.044Z,32.50
2022-12-25T00:55:46.590Z,29.80
2022-12-25T00:58:20.071Z,32.60
2022-12-25T01:00:54.551Z,30.50
2022-12-25T01:03:29.160Z,28.40
2022-12-25T01:06:05.281Z,30.20
2022-12-25T01:09:01.351Z,29.80
2022-12-25T01:11:35.520Z,31.60
2022-12-25T01:14:10.452Z,31.30
2022-12-25T01:16:43.953Z,31.30
2022-12-25T01:19:17.261Z,32.90
2022-12-25T01:21:51.296Z,35.00
2022-12-25T01:24:24.784Z,29.80
2022-12-25T01:26:58.781Z,32.90
2022-12-25T01:29:32.355Z,24.50
2022-12-25T01:32:06.837Z,25.70
2022-12-25T01:34:40.409Z,29.80
2022-12-25T01:37:14.372Z,25.30
2022-12-25T01:39:48.337Z,28.60
2022-12-25T01:42:24.054Z,29.50
2022-12-25T01:45:39.789Z,30.20
2022-12-25T01:48:20.404Z,27.30
2022-12-25T01:50:59.214Z,26.60
2022-12-25T01:53:33.444Z,28.00
2022-12-25T01:56:10.177Z,25.60
2022-12-25T01:58:44.644Z,23.40
2022-12-25T02:01:18.415Z,25.80
2022-12-25T02:03:53.267Z,22.90
2022-12-25T02:06:27.514Z,23.30
2022-12-25T02:09:02.045Z,24.10
2022-12-25T02:11:53.471Z,26.70
2022-12-25T02:14:29.435Z,22.00
2022-12-25T02:17:09.279Z,25.20
2022-12-25T02:20:01.880Z,25.80
2022-12-25T02:22:46.961Z,21.40
2022-12-25T02:25:38.321Z,26.70
2022-12-25T02:28:18.336Z,23.80
2022-12-25T02:31:01.519Z,25.20
2022-12-25T02:33:59.897Z,25.10
2022-12-25T02:36:40.592Z,24.40
2022-12-25T02:39:37.747Z,26.50
2022-12-25T02:42:21.339Z,26.90
2022-12-25T02:45:13.455Z,26.60
2022-12-25T02:48:04.858Z,27.20
2022-12-25T02:50:56.790Z,29.50
2022-12-25T02:53:49.335Z,29.60
2022-12-25T02:56:42.393Z,24.00
2022-12-25T02:59:36.399Z,25.50
2022-12-25T03:02:28.746Z,27.00
2022-12-25T03:05:26.404Z,26.90
2022-12-25T03:08:04.297Z,29.90
2022-12-25T03:10:59.587Z,29.30
2022-12-25T03:13:38.790Z,29.40
2022-12-25T03:16:30.070Z,24.00
2022-12-25T03:19:24.963Z,27.50
2022-12-25T03:22:16.867Z,26.70
2022-12-25T03:25:08.703Z,26.60
2022-12-25T03:27:44.582Z,27.30
2022-12-25T03:30:36.102Z,29.20
2022-12-25T03:33:43.967Z,29.20
2022-12-25T03:36:20.480Z,30.10
2022-12-25T03:39:28.083Z,30.00
2022-12-25T03:42:24.695Z,29.20
2022-12-25T03:45:23.000Z,28.50
2022-12-25T03:48:16.336Z,30.70
2022-12-25T03:51:13.582Z,29.30
2022-12-25T03:54:09.200Z,29.30
2022-12-25T03:57:02.833Z,28.60
2022-12-25T03:59:54.304Z,30.20
2022-12-25T04:02:45.720Z,32.90
2022-12-25T04:05:33.709Z,31.80
2022-12-25T04:08:36.532Z,30.80
2022-12-25T04:11:28.071Z,32.00
2022-12-25T04:14:19.636Z,29.20
2022-12-25T04:17:22.504Z,34.70
2022-12-25T04:20:13.640Z,37.00
2022-12-25T04:23:05.437Z,31.70
2022-12-25T04:25:57.025Z,32.50
2022-12-25T04:28:48.149Z,32.40
2022-12-25T04:31:39.121Z,33.40
2022-12-25T04:34:30.583Z,33.10
2022-12-25T04:37:04.435Z,33.30
2022-12-25T04:39:38.165Z,32.00
2022-12-25T04:42:13.069Z,35.60
2022-12-25T04:44:46.963Z,30.90
2022-12-25T04:47:20.780Z,32.60
2022-12-25T04:49:54.548Z,33.10
2022-12-25T04:52:28.387Z,34.40
2022-12-25T04:55:01.956Z,35.30
2022-12-25T04:57:35.684Z,36.20
2022-12-25T05:00:11.604Z,33.10
2022-12-25T05:02:45.200Z,36.60
2022-12-25T05:05:19.278Z,32.60
2022-12-25T05:07:53.224Z,35.40
2022-12-25T05:10:26.634Z,39.20
2022-12-25T05:13:00.379Z,34.80
2022-12-25T05:15:34.288Z,38.60
2022-12-25T05:18:08.161Z,37.90
2022-12-25T05:20:42.155Z,37.10
2022-12-25T05:23:16.250Z,42.20
2022-12-25T05:25:49.794Z,40.30
2022-12-25T05:28:23.606Z,36.70
2022-12-25T05:30:59.768Z,38.90
2022-12-25T05:33:33.668Z,38.50
2022-12-25T05:36:10.154Z,42.70
2022-12-25T05:38:43.928Z,35.80
2022-12-25T05:41:17.602Z,36.60
2022-12-25T05:43:51.506Z,40.30
2022-12-25T05:46:25.291Z,36.90
2022-12-25T05:48:59.183Z,43.10
2022-12-25T05:51:33.157Z,37.90
2022-12-25T05:54:06.915Z,33.80
2022-12-25T05:56:41.219Z,35.40
2022-12-25T05:59:15.359Z,35.10
2022-12-25T06:01:48.892Z,39.60
2022-12-25T06:04:22.443Z,36.20
2022-12-25T06:06:56.796Z,36.00
2022-12-25T06:09:30.763Z,38.00
2022-12-25T06:12:04.211Z,38.20
2022-12-25T06:14:38.544Z,41.90
2022-12-25T06:17:12.772Z,40.60
2022-12-25T06:19:47.324Z,42.30
2022-12-25T06:22:20.875Z,40.50
2022-12-25T06:24:54.944Z,40.40
2022-12-25T06:27:28.892Z,42.30
2022-12-25T06:30:02.754Z,41.20
2022-12-25T06:32:36.451Z,45.20
2022-12-25T06:35:11.444Z,40.10
2022-12-25T06:37:45.088Z,45.80
2022-12-25T06:40:19.173Z,40.50
2022-12-25T06:42:53.217Z,38.50
2022-12-25T06:45:26.948Z,45.20
2022-12-25T06:48:00.393Z,47.60
2022-12-25T06:50:34.235Z,42.80
2022-12-25T06:53:07.784Z,41.80
2022-12-25T06:55:41.171Z,48.50
2022-12-25T06:58:14.817Z,43.70
2022-12-25T07:00:48.305Z,41.80
2022-12-25T07:03:24.627Z,41.40
2022-12-25T07:05:58.300Z,45.30
2022-12-25T07:08:32.451Z,47.70
2022-12-25T07:11:06.540Z,46.40
2022-12-25T07:13:40.398Z,51.20
2022-12-25T07:16:14.914Z,45.40
2022-12-25T07:18:49.025Z,45.90
2022-12-25T07:21:23.400Z,44.00
2022-12-25T07:23:57.243Z,40.80
2022-12-25T07:26:30.915Z,47.50
2022-12-25T07:29:04.739Z,49.80
2022-12-25T07:31:38.621Z,48.00
2022-12-25T07:34:12.327Z,42.40
2022-12-25T07:36:45.905Z,42.30
2022-12-25T07:39:20.297Z,44.50
2022-12-25T07:41:54.447Z,48.20
2022-12-25T07:44:28.024Z,42.10
2022-12-25T07:47:01.782Z,39.00
2022-12-25T07:49:35.712Z,36.80
2022-12-25T07:52:09.715Z,43.10
2022-12-25T07:54:43.184Z,43.70
2022-12-25T07:57:17.152Z,41.80
2022-12-25T07:59:50.634Z,40.40
2022-12-25T08:02:29.093Z,37.00
2022-12-25T08:05:03.230Z,37.40
2022-12-25T08:07:37.292Z,39.60
2022-12-25T08:10:12.832Z,36.20
2022-12-25T08:12:46.543Z,39.50
2022-12-25T08:15:20.059Z,37.10
2022-12-25T08:17:53.563Z,36.20
2022-12-25T08:20:27.290Z,37.40
2022-12-25T08:23:00.931Z,38.80
2022-12-25T08:25:34.534Z,33.20
2022-12-25T08:28:08.511Z,34.40
2022-12-25T08:30:43.327Z,34.90
2022-12-25T08:33:17.121Z,35.80
2022-12-25T08:35:51.121Z,36.20
2022-12-25T08:38:24.884Z,35.00
2022-12-25T08:40:59.016Z,36.20
2022-12-25T08:43:32.574Z,40.60
2022-12-25T08:46:07.209Z,36.70
2022-12-25T08:48:42.978Z,34.90
2022-12-25T08:51:18.211Z,35.50
2022-12-25T08:53:53.058Z,39.00
2022-12-25T08:56:26.588Z,37.10
2022-12-25T08:59:00.603Z,37.80
2022-12-25T09:01:34.525Z,33.10
2022-12-25T09:04:08.809Z,32.40
2022-12-25T09:06:42.587Z,35.40
2022-12-25T09:09:16.457Z,36.10
2022-12-25T09:11:50.641Z,35.60
2022-12-25T09:14:24.322Z,37.60
2022-12-25T09:16:58.187Z,39.10
2022-12-25T09:19:32.376Z,47.80
2022-12-25T09:22:06.079Z,58.70
2022-12-25T09:24:41.067Z,61.10
2022-12-25T09:27:15.395Z,51.30
2022-12-25T09:29:49.531Z,40.20
2022-12-25T09:32:23.669Z,37.70
2022-12-25T09:34:57.873Z,38.30
2022-12-25T09:37:31.784Z,34.30
2022-12-25T09:40:06.015Z,34.40
2022-12-25T09:42:39.921Z,31.70
2022-12-25T09:45:20.118Z,34.50
2022-12-25T09:47:57.407Z,33.70
2022-12-25T09:50:41.317Z,38.80
2022-12-25T09:53:21.155Z,35.30
2022-12-25T09:56:01.908Z,32.70
2022-12-25T09:58:36.024Z,34.60
2022-12-25T10:01:18.377Z,32.50
2022-12-25T10:04:10.924Z,33.30
2022-12-25T10:06:54.321Z,31.50
2022-12-25T10:09:48.246Z,32.90
2022-12-25T10:12:34.283Z,31.00
2022-12-25T10:15:33.009Z,32.60
2022-12-25T10:18:34.046Z,26.50
2022-12-25T10:21:13.380Z,30.30
2022-12-25T10:23:53.893Z,30.30
2022-12-25T10:26:28.648Z,30.90
2022-12-25T10:29:07.055Z,31.00
2022-12-25T10:31:42.115Z,26.90
2022-12-25T10:34:18.289Z,33.60
2022-12-25T10:36:52.707Z,31.20
2022-12-25T10:39:27.819Z,27.60
2022-12-25T10:42:33.279Z,27.90
2022-12-25T10:45:09.783Z,29.30
2022-12-25T10:47:44.522Z,28.40
2022-12-25T10:50:24.840Z,29.00
2022-12-25T10:53:04.774Z,29.50
2022-12-25T10:55:38.462Z,27.30
2022-12-25T10:58:21.718Z,27.40
2022-12-25T11:01:02.754Z,29.50
2022-12-25T11:03:39.098Z,28.10
2022-12-25T11:06:26.434Z,29.40
2022-12-25T11:09:02.530Z,28.00
2022-12-25T11:11:38.647Z,27.30
2022-12-25T11:14:21.453Z,27.50
2022-12-25T11:16:55.283Z,25.80
2022-12-25T11:19:31.230Z,28.40
2022-12-25T11:22:06.919Z,29.70
2022-12-25T11:24:40.388Z,24.90
2022-12-25T11:27:26.579Z,27.30
2022-12-25T11:30:03.806Z,28.60
2022-12-25T11:32:44.796Z,30.30
2022-12-25T11:35:20.852Z,28.50
2022-12-25T11:37:55.977Z,32.30
2022-12-25T11:40:37.885Z,30.80
2022-12-25T11:43:18.137Z,29.60
2022-12-25T11:45:56.071Z,29.70
2022-12-25T11:48:33.671Z,32.40
2022-12-25T11:51:11.392Z,28.60
2022-12-25T11:53:51.508Z,28.40
2022-12-25T11:56:28.476Z,26.80
2022-12-25T11:59:12.488Z,26.70
2022-12-25T12:01:54.250Z,29.40
2022-12-25T12:04:40.238Z,29.50
2022-12-25T12:07:25.898Z,30.20
2022-12-25T12:10:05.413Z,30.20
2022-12-25T12:12:49.351Z,27.50
2022-12-25T12:15:31.406Z,29.20
2022-12-25T12:18:20.608Z,30.80
2022-12-25T12:21:06.360Z,30.10
2022-12-25T12:23:52.734Z,28.90
2022-12-25T12:26:28.128Z,29.30
2022-12-25T12:29:04.136Z,28.70
2022-12-25T12:31:46.272Z,30.20
2022-12-25T12:34:27.637Z,31.80
2022-12-25T12:37:06.570Z,30.10
2022-12-25T12:39:42.270Z,29.00
2022-12-25T12:42:26.292Z,29.70
2022-12-25T12:45:10.580Z,34.90
2022-12-25T12:47:46.889Z,31.40
2022-12-25T12:50:40.373Z,31.90
2022-12-25T12:53:38.450Z,34.30
2022-12-25T12:56:18.533Z,35.00
2022-12-25T12:58:53.096Z,35.20
2022-12-25T13:01:47.308Z,32.80
2022-12-25T13:04:50.766Z,33.90
2022-12-25T13:07:44.809Z,36.20
2022-12-25T13:10:27.296Z,37.10
2022-12-25T13:13:04.764Z,34.50
2022-12-25T13:15:40.203Z,39.00
2022-12-25T13:18:16.520Z,34.00
2022-12-25T13:20:55.434Z,36.10
2022-12-25T13:23:32.766Z,38.80
2022-12-25T13:26:13.108Z,39.90
2022-12-25T13:28:49.653Z,37.30
2022-12-25T13:31:25.136Z,40.30
2022-12-25T13:34:04.285Z,37.50
2022-12-25T13:36:41.184Z,38.50
2022-12-25T13:39:19.880Z,36.00
2022-12-25T13:44:49.879Z,37.70
2022-12-25T13:47:31.829Z,35.10
2022-12-25T13:50:18.856Z,36.80
2022-12-25T13:52:53.431Z,38.10
2022-12-25T13:55:29.128Z,44.90
2022-12-25T13:58:05.349Z,44.30
2022-12-25T14:00:41.108Z,40.50
2022-12-25T14:03:23.794Z,38.90
2022-12-25T14:06:02.708Z,40.00
2022-12-25T14:08:38.628Z,44.50
2022-12-25T14:11:16.091Z,46.60
2022-12-25T14:13:53.139Z,48.90
2022-12-25T14:16:27.794Z,45.30
2022-12-25T14:19:04.210Z,47.80
2022-12-25T14:21:41.283Z,46.20
2022-12-25T14:24:19.100Z,44.00
2022-12-25T14:27:01.818Z,46.10
2022-12-25T14:29:41.321Z,46.30
2022-12-25T14:32:19.965Z,45.30
2022-12-25T14:34:57.026Z,46.40
2022-12-25T14:37:33.578Z,47.90
2022-12-25T14:40:23.101Z,51.90
2022-12-25T14:43:01.908Z,51.40
2022-12-25T14:45:38.908Z,48.50
2022-12-25T14:48:25.408Z,51.40
2022-12-25T14:51:04.827Z,49.80
2022-12-25T14:53:42.935Z,50.20
2022-12-25T14:56:20.746Z,48.20
2022-12-25T14:58:56.326Z,54.30
2022-12-25T15:01:33.498Z,49.90
2022-12-25T15:04:19.272Z,47.90
2022-12-25T15:06:59.787Z,49.80
2022-12-25T15:09:36.307Z,60.10
2022-12-25T15:12:10.562Z,64.80
2022-12-25T15:14:44.687Z,63.80
2022-12-25T15:17:29.117Z,60.30
2022-12-25T15:20:07.011Z,60.20
2022-12-25T15:23:10.016Z,59.00
2022-12-25T15:25:35.555Z,53.30
2022-12-25T15:28:12.993Z,50.90
2022-12-25T15:30:47.069Z,53.70
2022-12-25T15:33:21.795Z,51.60
2022-12-25T15:35:55.409Z,50.80
2022-12-25T15:38:29.310Z,53.50
2022-12-25T15:41:03.069Z,53.70
2022-12-25T15:43:40.963Z,53.90
2022-12-25T15:46:15.950Z,50.70
2022-12-25T15:48:49.754Z,51.90
2022-12-25T15:51:23.941Z,48.50
2022-12-25T15:53:58.814Z,55.30
2022-12-25T15:56:38.649Z,57.20
2022-12-25T15:59:13.959Z,65.20
2022-12-25T16:01:50.832Z,67.70
2022-12-25T16:04:26.400Z,56.70
2022-12-25T16:07:00.372Z,57.40
2022-12-25T16:09:34.225Z,46.30
2022-12-25T16:12:08.218Z,57.90
2022-12-25T16:14:42.329Z,62.10
2022-12-25T16:17:17.429Z,62.60
2022-12-25T16:19:50.972Z,62.80
2022-12-25T16:22:27.266Z,68.50
2022-12-25T16:25:01.322Z,74.70
2022-12-25T16:27:34.939Z,65.80
2022-12-25T16:30:11.294Z,61.10
2022-12-25T16:32:45.781Z,61.60
2022-12-25T16:35:19.791Z,61.50
2022-12-25T16:37:53.992Z,62.40
2022-12-25T16:40:28.115Z,60.50
2022-12-25T16:43:02.356Z,65.00
2022-12-25T16:45:41.313Z,58.60
2022-12-25T16:48:15.996Z,58.80
2022-12-25T16:50:50.003Z,64.10
2022-12-25T16:53:24.258Z,65.90
2022-12-25T16:56:09.613Z,60.10
2022-12-25T16:58:46.942Z,63.20
2022-12-25T17:01:23.869Z,62.20
2022-12-25T17:04:01.780Z,63.40
2022-12-25T17:06:35.850Z,61.00
2022-12-25T17:09:10.969Z,60.20
2022-12-25T17:11:44.986Z,68.70
2022-12-25T17:14:18.564Z,59.00
2022-12-25T17:16:52.774Z,57.70
2022-12-25T17:19:26.436Z,60.30
2022-12-25T17:22:01.204Z,64.00
2022-12-25T17:24:37.733Z,61.10
2022-12-25T17:27:11.911Z,59.70
2022-12-25T17:29:47.605Z,58.20
2022-12-25T17:32:22.024Z,54.90
2022-12-25T17:34:55.978Z,60.90
2022-12-25T17:37:29.601Z,61.70
2022-12-25T17:40:03.448Z,62.60
2022-12-25T17:42:37.413Z,55.80
2022-12-25T17:45:13.119Z,58.30
2022-12-25T17:47:47.095Z,60.10
2022-12-25T17:50:20.955Z,57.10
2022-12-25T17:52:54.790Z,62.80
2022-12-25T17:55:34.577Z,57.50
2022-12-25T17:58:09.514Z,51.60
2022-12-25T18:00:44.374Z,65.20
2022-12-25T18:03:18.652Z,52.80
2022-12-25T18:05:52.507Z,55.20
2022-12-25T18:08:26.384Z,63.70
2022-12-25T18:11:03.749Z,60.50
2022-12-25T18:13:37.691Z,50.60
2022-12-25T18:16:12.858Z,49.70
2022-12-25T18:18:51.884Z,56.90
2022-12-25T18:21:26.764Z,53.00
2022-12-25T18:24:00.495Z,56.60
2022-12-25T18:26:35.133Z,55.80
2022-12-25T18:29:09.119Z,47.00
2022-12-25T18:31:43.252Z,46.30
2022-12-25T18:34:17.326Z,53.60
2022-12-25T18:36:52.706Z,47.60
2022-12-25T18:39:26.663Z,53.30
2022-12-25T18:42:18.706Z,49.30
2022-12-25T18:44:52.376Z,42.40
2022-12-25T18:47:26.493Z,41.80
2022-12-25T18:50:01.231Z,46.60
2022-12-25T18:52:48.250Z,40.70
2022-12-25T18:55:25.609Z,46.30
2022-12-25T18:57:59.807Z,51.10
2022-12-25T19:00:34.156Z,45.70
2022-12-25T19:03:08.712Z,42.20
2022-12-25T19:05:44.118Z,39.90
2022-12-25T19:08:18.205Z,42.00
2022-12-25T19:10:52.313Z,43.70
2022-12-25T19:13:26.083Z,45.90
2022-12-25T19:16:02.875Z,37.90
2022-12-25T19:18:36.999Z,42.40
2022-12-25T19:21:13.054Z,43.30
2022-12-25T19:23:47.247Z,44.10
2022-12-25T19:26:21.285Z,43.40
2022-12-25T19:28:55.906Z,39.40
2022-12-25T19:31:29.882Z,38.00
2022-12-25T19:34:04.211Z,43.50
2022-12-25T19:36:39.539Z,42.40
2022-12-25T19:39:15.370Z,36.70
2022-12-25T19:41:50.145Z,43.00
2022-12-25T19:44:24.791Z,41.50
2022-12-25T19:46:58.561Z,41.20
2022-12-25T19:49:35.247Z,43.80
2022-12-25T19:52:10.405Z,43.90
2022-12-25T19:54:44.052Z,40.50
2022-12-25T19:57:18.075Z,38.70
2022-12-25T19:59:52.947Z,41.60
2022-12-25T20:02:27.574Z,39.30
2022-12-25T20:05:02.024Z,40.80
2022-12-25T20:07:36.747Z,40.50
2022-12-25T20:10:11.474Z,42.00
2022-12-25T20:12:46.668Z,39.80
2022-12-25T20:15:21.704Z,40.70
2022-12-25T20:17:56.243Z,41.60
2022-12-25T20:20:30.709Z,42.90
2022-12-25T20:23:05.514Z,38.10
2022-12-25T20:25:43.268Z,45.20
2022-12-25T20:28:17.786Z,42.40
2022-12-25T20:30:51.571Z,37.60
2022-12-25T20:33:26.942Z,32.60
2022-12-25T20:36:03.307Z,32.90
2022-12-25T20:38:38.660Z,36.90
2022-12-25T20:41:30.488Z,35.00
2022-12-25T20:44:04.772Z,35.50
2022-12-25T20:46:38.871Z,32.30
2022-12-25T20:49:12.694Z,36.10
2022-12-25T20:51:47.205Z,37.40
2022-12-25T20:54:20.977Z,34.60
2022-12-25T20:56:55.034Z,35.90
2022-12-25T20:59:37.000Z,33.10
2022-12-25T21:02:34.468Z,34.10
2022-12-25T21:05:08.345Z,33.10
2022-12-25T21:07:42.243Z,34.30
2022-12-25T21:10:16.134Z,33.70
2022-12-25T21:12:49.580Z,36.40
2022-12-25T21:15:24.046Z,31.60
2022-12-25T21:17:57.691Z,35.30
2022-12-25T21:20:31.191Z,35.10
2022-12-25T21:23:05.332Z,34.90
2022-12-25T21:25:39.499Z,34.10
2022-12-25T21:28:13.115Z,35.40
2022-12-25T21:30:47.042Z,34.10
2022-12-25T21:33:38.345Z,33.80
2022-12-25T21:36:13.769Z,36.70
2022-12-25T21:38:47.731Z,33.30
2022-12-25T21:41:21.976Z,35.00
2022-12-25T21:43:56.414Z,36.40
2022-12-25T21:46:30.880Z,36.70
2022-12-25T21:49:05.775Z,34.70
2022-12-25T21:51:57.280Z,33.10
2022-12-25T21:54:31.538Z,32.90
2022-12-25T21:57:05.572Z,33.90
2022-12-25T21:59:39.611Z,36.20
2022-12-25T22:02:14.117Z,34.90
2022-12-25T22:04:48.317Z,37.00
2022-12-25T22:07:22.331Z,36.10
2022-12-25T22:09:56.735Z,35.90
2022-12-25T22:12:47.700Z,35.10
2022-12-25T22:15:22.002Z,36.20
2022-12-25T22:18:13.140Z,29.80
2022-12-25T22:20:47.067Z,37.10
2022-12-25T22:23:20.649Z,33.60
2022-12-25T22:25:54.416Z,34.40
2022-12-25T22:28:27.893Z,37.10
2022-12-25T22:31:04.512Z,38.00
2022-12-25T22:33:38.389Z,31.00
2022-12-25T22:36:13.327Z,35.30
2022-12-25T22:38:47.309Z,35.00
2022-12-25T22:41:21.095Z,37.90
2022-12-25T22:44:18.862Z,34.20
2022-12-25T22:46:48.692Z,33.70
2022-12-25T22:49:22.980Z,33.60
2022-12-25T22:51:56.879Z,31.70
2022-12-25T22:54:32.949Z,33.30
2022-12-25T22:57:07.906Z,33.30
2022-12-25T22:59:41.577Z,33.10
2022-12-25T23:02:15.682Z,33.60
2022-12-25T23:04:50.074Z,29.50
2022-12-25T23:07:23.991Z,34.90
2022-12-25T23:09:59.262Z,33.10
2022-12-25T23:12:50.813Z,32.70
2022-12-25T23:15:25.353Z,30.70
2022-12-25T23:18:16.983Z,32.20
2022-12-25T23:21:08.580Z,33.70
2022-12-25T23:23:59.780Z,30.10
2022-12-25T23:26:34.097Z,29.30
2022-12-25T23:29:25.866Z,32.40
2022-12-25T23:32:00.561Z,31.10
2022-12-25T23:34:34.209Z,34.40
2022-12-25T23:37:08.824Z,28.90
2022-12-25T23:39:42.611Z,32.10
2022-12-25T23:42:16.632Z,27.40
2022-12-25T23:44:50.374Z,30.00
2022-12-25T23:47:24.653Z,27.40
2022-12-25T23:49:58.316Z,22.90
2022-12-25T23:52:31.997Z,28.90
2022-12-25T23:55:05.952Z,28.10
2022-12-25T23:57:39.632Z,31.40
